Time;durP1;ratioP1;P1;durP2;ratioP2;P2;SDS_P1;SDS_P2;PMS_P1;PMS_P2;Temp;Humidity;BMP_temperature;BMP_pressure;BME280_temperature;BME280_humidity;BME280_pressure;Samples;Min_cycle;Max_cycle;Signal;HPM_P1;HPM_P2
2023/06/23 00:01:03;;;;;;;3.83;1.70;;;;;;;;;;5035744;28;20128;-69
2023/06/23 00:03:33;;;;;;;5.43;1.52;;;;;;;;;;5036537;28;20049;-69
2023/06/23 00:06:03;;;;;;;2.10;1.30;;;;;;;;;;5037314;28;20037;-67
2023/06/23 00:08:32;;;;;;;3.17;1.25;;;;;;;;;;5037829;28;20136;-70
2023/06/23 00:11:00;;;;;;;3.25;1.55;;;;;;;;;;5037819;28;20895;-68
2023/06/23 00:13:29;;;;;;;2.83;1.10;;;;;;;;;;5034179;28;20057;-71
2023/06/23 00:15:58;;;;;;;2.60;1.17;;;;;;;;;;5036669;28;20130;-68
2023/06/23 00:18:27;;;;;;;2.80;1.20;;;;;;;;;;5037763;28;20072;-71
2023/06/23 00:20:55;;;;;;;2.97;1.10;;;;;;;;;;5034423;28;20140;-74
2023/06/23 00:23:23;;;;;;;1.80;1.00;;;;;;;;;;5038527;28;20123;-70
2023/06/23 00:25:52;;;;;;;4.95;1.00;;;;;;;;;;5037455;28;20395;-71
2023/06/23 00:28:20;;;;;;;5.13;1.20;;;;;;;;;;5038456;28;20102;-69
2023/06/23 00:30:49;;;;;;;2.30;1.23;;;;;;;;;;5035569;28;20080;-75
2023/06/23 00:33:18;;;;;;;3.92;1.05;;;;;;;;;;5037755;28;20583;-71
2023/06/23 00:35:47;;;;;;;1.85;1.10;;;;;;;;;;5035648;28;20068;-68
2023/06/23 00:38:15;;;;;;;3.25;1.38;;;;;;;;;;5035431;28;20080;-67
2023/06/23 00:40:44;;;;;;;1.98;1.17;;;;;;;;;;5037298;28;20099;-69
2023/06/23 00:43:13;;;;;;;2.22;0.90;;;;;;;;;;5037279;28;20057;-67
2023/06/23 00:45:41;;;;;;;2.47;1.17;;;;;;;;;;5039709;28;20068;-67
2023/06/23 00:48:13;;;;;;;3.30;1.17;;;;;;;;;;5037293;28;20466;-66
2023/06/23 00:50:43;;;;;;;7.07;1.58;;;;;;;;;;5034473;28;20045;-68
2023/06/23 00:53:11;;;;;;;2.35;1.05;;;;;;;;;;5038916;28;20441;-67
2023/06/23 00:55:40;;;;;;;3.78;1.02;;;;;;;;;;5033879;28;20080;-73
2023/06/23 00:58:12;;;;;;;2.72;1.27;;;;;;;;;;5037656;28;20053;-66
2023/06/23 01:00:40;;;;;;;2.97;1.17;;;;;;;;;;5039900;28;20080;-69
2023/06/23 01:03:08;;;;;;;2.20;1.00;;;;;;;;;;5041696;22;20057;-68
2023/06/23 01:05:39;;;;;;;1.60;1.10;;;;;;;;;;4996415;28;20046;-64
2023/06/23 01:08:17;;;;;;;3.72;1.42;;;;;;;;;;5004287;28;20129;-76
2023/06/23 01:10:48;;;;;;;1.38;0.80;;;;;;;;;;5003504;28;20054;-64
2023/06/23 01:13:19;;;;;;;4.30;1.17;;;;;;;;;;5001414;28;20070;-68
2023/06/23 01:15:51;;;;;;;2.83;1.23;;;;;;;;;;5000255;28;20160;-66
2023/06/23 01:18:22;;;;;;;1.98;0.93;;;;;;;;;;5002718;28;20085;-83
2023/06/23 01:20:51;;;;;;;3.63;1.13;;;;;;;;;;5004943;28;20077;-67
2023/06/23 01:23:29;;;;;;;3.90;0.98;;;;;;;;;;5003076;28;20054;-69
2023/06/23 01:26:06;;;;;;;2.90;1.10;;;;;;;;;;4996054;28;20117;-63
2023/06/23 01:28:45;;;;;;;2.53;1.30;;;;;;;;;;5009212;28;20167;-64
2023/06/23 01:31:14;;;;;;;2.72;1.20;;;;;;;;;;5004731;28;20073;-73
2023/06/23 01:33:44;;;;;;;2.03;1.33;;;;;;;;;;4998398;28;20700;-65
2023/06/23 01:36:14;;;;;;;1.65;0.90;;;;;;;;;;5000189;28;20156;-61
2023/06/23 01:38:45;;;;;;;1.80;1.10;;;;;;;;;;5001222;28;20141;-62
2023/06/23 01:41:16;;;;;;;2.67;1.10;;;;;;;;;;5005841;28;20072;-66
2023/06/23 01:43:47;;;;;;;3.17;0.95;;;;;;;;;;5002972;28;20128;-87
2023/06/23 01:46:17;;;;;;;6.75;1.20;;;;;;;;;;5004630;28;20057;-66
2023/06/23 01:48:47;;;;;;;2.17;1.00;;;;;;;;;;5008655;28;20053;-66
2023/06/23 01:51:17;;;;;;;3.05;1.40;;;;;;;;;;5005531;28;20100;-69
2023/06/23 01:53:47;;;;;;;3.53;1.20;;;;;;;;;;5002882;28;20070;-63
2023/06/23 01:56:15;;;;;;;3.50;1.10;;;;;;;;;;4987808;28;20073;-70
2023/06/23 01:58:45;;;;;;;3.03;1.10;;;;;;;;;;4984064;28;20145;-63
2023/06/23 02:01:14;;;;;;;6.43;1.40;;;;;;;;;;4989706;28;20078;-73
2023/06/23 02:03:43;;;;;;;2.63;1.00;;;;;;;;;;4984615;28;20058;-61
2023/06/23 02:06:12;;;;;;;6.10;1.58;;;;;;;;;;4996031;28;20053;-83
2023/06/23 02:08:40;;;;;;;1.77;0.90;;;;;;;;;;5001861;28;20583;-65
2023/06/23 02:11:10;;;;;;;1.55;0.77;;;;;;;;;;5001983;28;20138;-63
2023/06/23 02:13:40;;;;;;;3.08;1.20;;;;;;;;;;5005268;28;20557;-64
2023/06/23 02:16:11;;;;;;;6.95;1.20;;;;;;;;;;4999611;28;20438;-77
2023/06/23 02:18:41;;;;;;;2.97;1.25;;;;;;;;;;5003570;28;20058;-62
2023/06/23 02:21:11;;;;;;;4.05;1.35;;;;;;;;;;4998504;28;20038;-62
2023/06/23 02:23:40;;;;;;;2.35;0.98;;;;;;;;;;5002889;28;20503;-81
2023/06/23 02:26:09;;;;;;;1.17;0.80;;;;;;;;;;5008064;28;20451;-70
2023/06/23 02:28:38;;;;;;;5.32;1.05;;;;;;;;;;5007387;28;20077;-62
2023/06/23 02:31:08;;;;;;;3.67;0.82;;;;;;;;;;5009557;28;20164;-63
2023/06/23 02:33:38;;;;;;;2.78;1.20;;;;;;;;;;5008167;28;20065;-62
2023/06/23 02:36:09;;;;;;;2.13;1.00;;;;;;;;;;5003995;28;20078;-72
2023/06/23 02:38:37;;;;;;;1.35;0.80;;;;;;;;;;5005734;28;20392;-69
2023/06/23 02:41:08;;;;;;;4.70;1.20;;;;;;;;;;5006824;28;20077;-66
2023/06/23 02:43:38;;;;;;;2.85;1.02;;;;;;;;;;5001721;28;20108;-88
2023/06/23 02:46:09;;;;;;;1.77;1.13;;;;;;;;;;5003893;28;20453;-69
2023/06/23 02:48:41;;;;;;;2.40;0.85;;;;;;;;;;5003123;28;21333;-67
2023/06/23 02:51:11;;;;;;;3.38;1.35;;;;;;;;;;5007356;28;20080;-63
2023/06/23 02:53:42;;;;;;;5.60;1.10;;;;;;;;;;5005012;28;20477;-63
2023/06/23 02:56:16;;;;;;;2.13;1.13;;;;;;;;;;5004828;28;20058;-65
2023/06/23 02:58:47;;;;;;;1.80;0.93;;;;;;;;;;4999545;28;20057;-68
2023/06/23 03:01:16;;;;;;;2.22;0.93;;;;;;;;;;5004806;28;20077;-61
2023/06/23 03:03:46;;;;;;;2.35;1.17;;;;;;;;;;5004250;28;20057;-62
2023/06/23 03:06:19;;;;;;;2.85;1.10;;;;;;;;;;5004588;28;20085;-76
2023/06/23 03:08:48;;;;;;;3.33;1.38;;;;;;;;;;5001908;28;20042;-61
2023/06/23 03:11:17;;;;;;;2.55;1.15;;;;;;;;;;5003160;28;20735;-71
2023/06/23 03:13:45;;;;;;;3.33;1.38;;;;;;;;;;5008398;28;20137;-65
2023/06/23 03:16:15;;;;;;;3.15;0.88;;;;;;;;;;5000668;28;20134;-64
2023/06/23 03:18:53;;;;;;;4.00;1.15;;;;;;;;;;5000142;28;20188;-61
2023/06/23 03:21:23;;;;;;;2.33;1.10;;;;;;;;;;5002280;28;20062;-61
2023/06/23 03:23:53;;;;;;;2.42;1.08;;;;;;;;;;5003058;28;20048;-73
2023/06/23 03:26:22;;;;;;;1.75;1.00;;;;;;;;;;5002332;28;20557;-64
2023/06/23 03:28:54;;;;;;;2.80;1.10;;;;;;;;;;4999415;28;20577;-67
2023/06/23 03:31:23;;;;;;;1.88;1.10;;;;;;;;;;5002288;28;20489;-73
2023/06/23 03:33:54;;;;;;;2.92;1.60;;;;;;;;;;5003282;28;20053;-65
2023/06/23 03:36:23;;;;;;;4.82;1.00;;;;;;;;;;5003658;28;20127;-64
2023/06/23 03:38:54;;;;;;;2.17;1.10;;;;;;;;;;5003559;28;20054;-71
2023/06/23 03:41:23;;;;;;;1.75;1.05;;;;;;;;;;5000824;28;20075;-63
2023/06/23 03:43:53;;;;;;;1.33;0.80;;;;;;;;;;5002293;28;20103;-66
2023/06/23 03:46:23;;;;;;;3.13;1.20;;;;;;;;;;5005489;28;20045;-77
2023/06/23 03:48:56;;;;;;;4.63;1.25;;;;;;;;;;5003809;28;20490;-61
2023/06/23 03:51:25;;;;;;;2.63;1.08;;;;;;;;;;5003081;28;20680;-62
2023/06/23 03:53:56;;;;;;;2.60;1.10;;;;;;;;;;4999083;28;20065;-64
2023/06/23 03:56:26;;;;;;;1.65;0.98;;;;;;;;;;4998719;28;20128;-64
2023/06/23 03:58:55;;;;;;;2.55;1.00;;;;;;;;;;5006936;28;20081;-76
2023/06/23 04:01:24;;;;;;;1.80;0.90;;;;;;;;;;4999760;28;20587;-74
2023/06/23 04:03:56;;;;;;;1.25;0.63;;;;;;;;;;5004918;28;20081;-65
2023/06/23 04:06:26;;;;;;;1.70;0.90;;;;;;;;;;5003489;28;20073;-69
2023/06/23 04:08:56;;;;;;;2.47;0.80;;;;;;;;;;5001401;28;20050;-63
2023/06/23 04:11:25;;;;;;;2.15;0.95;;;;;;;;;;5003139;28;20050;-64
2023/06/23 04:13:57;;;;;;;1.85;0.80;;;;;;;;;;5004710;28;20104;-63
2023/06/23 04:16:26;;;;;;;1.52;0.90;;;;;;;;;;5001392;28;20055;-64
2023/06/23 04:18:56;;;;;;;1.17;0.82;;;;;;;;;;5003968;28;20111;-64
2023/06/23 04:21:25;;;;;;;1.40;0.82;;;;;;;;;;5006459;28;20108;-62
2023/06/23 04:23:55;;;;;;;1.55;0.80;;;;;;;;;;5006701;28;20577;-65
2023/06/23 04:26:26;;;;;;;4.10;0.95;;;;;;;;;;4998009;28;20050;-65
2023/06/23 04:28:55;;;;;;;2.88;1.00;;;;;;;;;;5004754;28;20053;-73
2023/06/23 04:31:25;;;;;;;0.95;0.60;;;;;;;;;;5005303;28;20050;-68
2023/06/23 04:33:55;;;;;;;0.93;0.65;;;;;;;;;;5002789;28;20171;-67
2023/06/23 04:36:26;;;;;;;4.75;0.85;;;;;;;;;;5000989;28;20054;-71
2023/06/23 04:38:57;;;;;;;0.77;0.50;;;;;;;;;;5001412;28;20057;-69
2023/06/23 04:41:26;;;;;;;1.40;0.73;;;;;;;;;;5003864;28;20046;-65
2023/06/23 04:43:55;;;;;;;1.83;0.70;;;;;;;;;;5003539;28;20057;-65
2023/06/23 04:46:24;;;;;;;0.85;0.55;;;;;;;;;;4998515;28;20099;-64
2023/06/23 04:48:54;;;;;;;3.22;0.75;;;;;;;;;;4999249;28;20053;-64
2023/06/23 04:51:26;;;;;;;1.00;0.45;;;;;;;;;;4996028;28;20049;-69
2023/06/23 04:53:57;;;;;;;44.95;11.48;;;;;;;;;;4997616;28;20116;-78
2023/06/23 04:56:31;;;;;;;1.27;0.52;;;;;;;;;;5000244;28;20050;-64
2023/06/23 04:59:02;;;;;;;0.77;0.45;;;;;;;;;;4999968;28;20132;-68
2023/06/23 05:01:31;;;;;;;5.57;0.75;;;;;;;;;;4998103;28;20057;-76
2023/06/23 05:04:01;;;;;;;2.38;0.60;;;;;;;;;;4998773;28;20550;-65
2023/06/23 05:06:32;;;;;;;1.02;0.60;;;;;;;;;;4998439;28;20426;-65
2023/06/23 05:09:01;;;;;;;2.95;0.82;;;;;;;;;;4996283;28;20057;-69
2023/06/23 05:11:30;;;;;;;0.98;0.70;;;;;;;;;;4996317;28;20572;-70
2023/06/23 05:14:00;;;;;;;1.77;0.38;;;;;;;;;;5001479;28;20091;-71
2023/06/23 05:16:28;;;;;;;1.42;0.60;;;;;;;;;;4998979;28;20122;-68
2023/06/23 05:18:58;;;;;;;0.40;0.40;;;;;;;;;;5000409;28;20466;-64
2023/06/23 05:21:27;;;;;;;2.00;0.75;;;;;;;;;;5004677;28;20137;-69
2023/06/23 05:23:58;;;;;;;2.05;0.63;;;;;;;;;;5000160;28;20042;-73
2023/06/23 05:26:33;;;;;;;0.68;0.30;;;;;;;;;;5001611;28;20433;-66
2023/06/23 05:29:03;;;;;;;2.10;0.40;;;;;;;;;;5002210;28;20050;-76
2023/06/23 05:31:33;;;;;;;1.08;0.38;;;;;;;;;;4996459;28;20057;-67
2023/06/23 05:34:02;;;;;;;0.55;0.32;;;;;;;;;;4994285;28;20506;-65
2023/06/23 05:36:32;;;;;;;0.55;0.25;;;;;;;;;;4997014;28;20053;-67
2023/06/23 05:39:03;;;;;;;2.88;0.47;;;;;;;;;;4998318;28;20046;-65
2023/06/23 05:41:31;;;;;;;0.47;0.20;;;;;;;;;;5001473;28;20099;-65
2023/06/23 05:44:00;;;;;;;1.25;0.40;;;;;;;;;;5003897;28;20057;-73
2023/06/23 05:46:29;;;;;;;4.70;0.52;;;;;;;;;;5002626;28;20054;-71
2023/06/23 05:49:00;;;;;;;1.73;0.32;;;;;;;;;;5000131;28;20050;-65
2023/06/23 05:51:31;;;;;;;1.45;0.60;;;;;;;;;;5003141;28;20050;-62
2023/06/23 05:54:01;;;;;;;1.85;0.30;;;;;;;;;;5002158;28;20050;-62
2023/06/23 05:56:34;;;;;;;0.77;0.30;;;;;;;;;;5002079;28;20128;-63
2023/06/23 05:59:04;;;;;;;2.47;0.60;;;;;;;;;;4999026;28;20038;-77
2023/06/23 06:01:33;;;;;;;3.78;0.50;;;;;;;;;;5003650;28;21047;-66
2023/06/23 06:04:05;;;;;;;1.95;0.60;;;;;;;;;;4999124;28;20057;-63
2023/06/23 06:06:35;;;;;;;2.05;0.60;;;;;;;;;;5001151;28;20426;-66
2023/06/23 06:09:05;;;;;;;5.88;0.50;;;;;;;;;;5000320;28;20058;-68
2023/06/23 06:11:37;;;;;;;1.42;0.80;;;;;;;;;;5002435;28;20084;-71
2023/06/23 06:14:07;;;;;;;1.15;0.70;;;;;;;;;;4999785;28;20050;-64
2023/06/23 06:16:37;;;;;;;1.27;0.82;;;;;;;;;;5002200;28;20552;-66
2023/06/23 06:19:06;;;;;;;4.50;0.82;;;;;;;;;;4999679;28;20057;-75
2023/06/23 06:21:36;;;;;;;1.67;1.13;;;;;;;;;;5001879;28;20527;-66
2023/06/23 06:24:05;;;;;;;0.90;0.70;;;;;;;;;;5001717;28;20074;-73
2023/06/23 06:26:35;;;;;;;2.78;1.08;;;;;;;;;;4996955;28;20050;-68
2023/06/23 06:29:05;;;;;;;3.58;1.10;;;;;;;;;;4999367;28;20070;-65
2023/06/23 06:31:34;;;;;;;1.85;1.13;;;;;;;;;;4997900;28;20046;-79
2023/06/23 06:34:03;;;;;;;2.22;1.17;;;;;;;;;;5001405;28;20042;-69
2023/06/23 06:36:34;;;;;;;4.63;1.50;;;;;;;;;;5007837;28;20172;-78
2023/06/23 06:39:03;;;;;;;2.15;1.15;;;;;;;;;;5001969;28;20037;-73
2023/06/23 06:41:31;;;;;;;4.18;1.42;;;;;;;;;;5005161;28;20103;-63
2023/06/23 06:44:02;;;;;;;3.72;1.67;;;;;;;;;;5000329;28;21060;-69
2023/06/23 06:46:31;;;;;;;2.13;1.20;;;;;;;;;;5005521;28;20042;-67
2023/06/23 06:49:00;;;;;;;2.38;1.27;;;;;;;;;;5010328;28;20414;-67
2023/06/23 06:51:29;;;;;;;4.65;1.77;;;;;;;;;;5006484;28;20141;-73
2023/06/23 06:53:57;;;;;;;3.85;1.88;;;;;;;;;;5001891;28;20053;-79
2023/06/23 06:56:26;;;;;;;3.58;2.00;;;;;;;;;;5003038;28;20061;-75
2023/06/23 06:58:55;;;;;;;4.97;2.55;;;;;;;;;;5003035;28;20069;-64
2023/06/23 07:01:25;;;;;;;3.17;1.83;;;;;;;;;;5006755;28;20144;-71
2023/06/23 07:03:55;;;;;;;4.30;2.40;;;;;;;;;;5004470;28;20050;-62
2023/06/23 07:06:24;;;;;;;9.18;2.25;;;;;;;;;;5002543;28;20474;-65
2023/06/23 07:08:52;;;;;;;7.13;2.75;;;;;;;;;;5005711;28;20064;-73
2023/06/23 07:11:21;;;;;;;4.18;2.55;;;;;;;;;;5007217;28;20099;-64
2023/06/23 07:13:49;;;;;;;4.55;2.67;;;;;;;;;;5003115;28;20050;-77
2023/06/23 07:16:18;;;;;;;4.75;2.83;;;;;;;;;;5001469;28;20526;-69
2023/06/23 07:18:47;;;;;;;4.15;2.65;;;;;;;;;;5002350;28;20046;-77
2023/06/23 07:21:16;;;;;;;3.97;2.28;;;;;;;;;;5004137;28;20077;-68
2023/06/23 07:23:44;;;;;;;6.00;2.90;;;;;;;;;;4996956;28;20112;-73
2023/06/23 07:26:13;;;;;;;5.55;2.97;;;;;;;;;;5002428;28;20588;-69
2023/06/23 07:28:41;;;;;;;5.88;3.40;;;;;;;;;;5005286;28;20147;-77
2023/06/23 07:31:09;;;;;;;5.55;3.28;;;;;;;;;;5005249;28;21139;-75
2023/06/23 07:33:38;;;;;;;5.97;2.90;;;;;;;;;;5007884;28;20064;-72
2023/06/23 07:36:08;;;;;;;4.30;2.60;;;;;;;;;;5002938;28;20054;-66
2023/06/23 07:38:36;;;;;;;5.75;3.38;;;;;;;;;;5005213;28;20051;-67
2023/06/23 07:41:06;;;;;;;6.07;3.20;;;;;;;;;;5005133;28;20433;-67
2023/06/23 07:43:34;;;;;;;6.05;2.90;;;;;;;;;;5003921;28;20509;-74
2023/06/23 07:46:02;;;;;;;8.93;4.35;;;;;;;;;;5001957;28;20049;-73
2023/06/23 07:48:31;;;;;;;6.00;3.47;;;;;;;;;;5001796;28;20120;-71
2023/06/23 07:50:59;;;;;;;6.10;3.53;;;;;;;;;;5003981;28;20542;-62
2023/06/23 07:53:29;;;;;;;5.63;3.30;;;;;;;;;;5002868;28;20454;-67
2023/06/23 07:55:58;;;;;;;6.20;3.53;;;;;;;;;;4999232;28;20062;-63
2023/06/23 07:58:26;;;;;;;6.68;3.38;;;;;;;;;;5006051;28;20066;-63
2023/06/23 08:00:55;;;;;;;5.78;3.33;;;;;;;;;;5000222;28;20516;-71
2023/06/23 08:03:23;;;;;;;7.20;3.25;;;;;;;;;;5003022;28;20565;-70
2023/06/23 08:05:52;;;;;;;5.65;3.00;;;;;;;;;;5000188;28;20071;-68
2023/06/23 08:08:20;;;;;;;4.80;2.75;;;;;;;;;;5004410;28;20042;-64
2023/06/23 08:10:50;;;;;;;6.88;3.67;;;;;;;;;;5003219;28;20045;-72
2023/06/23 08:13:19;;;;;;;7.78;3.88;;;;;;;;;;5006565;28;20107;-77
2023/06/23 08:15:48;;;;;;;6.90;3.60;;;;;;;;;;5001516;28;20053;-77
2023/06/23 08:18:16;;;;;;;6.55;3.60;;;;;;;;;;5004660;28;20053;-68
2023/06/23 08:20:45;;;;;;;5.78;3.25;;;;;;;;;;5004507;28;20258;-64
2023/06/23 08:23:13;;;;;;;9.70;3.92;;;;;;;;;;5000636;28;20046;-81
2023/06/23 08:25:42;;;;;;;7.97;4.30;;;;;;;;;;5006187;28;20495;-71
2023/06/23 08:28:12;;;;;;;7.03;4.00;;;;;;;;;;5002337;28;20050;-70
2023/06/23 08:30:40;;;;;;;5.80;3.65;;;;;;;;;;5001209;28;20045;-68
2023/06/23 08:33:09;;;;;;;7.07;4.22;;;;;;;;;;5005787;28;20065;-66
2023/06/23 08:35:38;;;;;;;8.00;4.10;;;;;;;;;;5001191;28;20065;-67
2023/06/23 08:38:06;;;;;;;6.47;3.38;;;;;;;;;;4999689;28;20034;-79
2023/06/23 08:40:35;;;;;;;7.70;3.75;;;;;;;;;;5004607;28;20046;-66
2023/06/23 08:43:03;;;;;;;6.82;3.80;;;;;;;;;;5007400;28;20058;-71
2023/06/23 08:45:35;;;;;;;7.40;3.28;;;;;;;;;;5004883;28;20393;-66
2023/06/23 08:48:04;;;;;;;8.63;4.32;;;;;;;;;;5003852;28;20108;-63
2023/06/23 08:50:33;;;;;;;6.63;3.55;;;;;;;;;;5008677;28;20056;-64
2023/06/23 08:53:04;;;;;;;8.82;4.30;;;;;;;;;;5002846;28;21397;-70
2023/06/23 08:55:33;;;;;;;8.30;4.93;;;;;;;;;;5002048;28;20038;-68
2023/06/23 08:58:03;;;;;;;9.13;4.68;;;;;;;;;;5004288;28;20046;-64
2023/06/23 09:00:31;;;;;;;8.88;4.82;;;;;;;;;;5004230;28;20053;-62
2023/06/23 09:03:01;;;;;;;10.48;4.28;;;;;;;;;;4995282;28;20089;-68
2023/06/23 09:05:30;;;;;;;11.15;4.85;;;;;;;;;;4995943;28;20046;-67
2023/06/23 09:07:59;;;;;;;9.40;5.13;;;;;;;;;;4999150;28;20052;-71
2023/06/23 09:10:27;;;;;;;8.68;4.95;;;;;;;;;;5005486;28;20099;-63
2023/06/23 09:13:14;;;;;;;7.57;4.50;;;;;;;;;;4998630;28;20046;-63
2023/06/23 09:15:46;;;;;;;10.27;5.05;;;;;;;;;;5000251;28;20462;-68
2023/06/23 09:18:31;;;;;;;9.32;4.88;;;;;;;;;;4999235;28;20038;-62
2023/06/23 09:21:02;;;;;;;9.30;5.18;;;;;;;;;;5002044;28;20045;-63
2023/06/23 09:23:31;;;;;;;12.50;5.25;;;;;;;;;;4993186;28;20507;-67
2023/06/23 09:26:03;;;;;;;8.70;4.82;;;;;;;;;;5000207;28;20049;-72
2023/06/23 09:28:35;;;;;;;10.38;4.75;;;;;;;;;;5003819;28;20045;-76
2023/06/23 09:31:09;;;;;;;9.27;4.85;;;;;;;;;;4999480;28;20050;-66
2023/06/23 09:33:46;;;;;;;10.13;5.45;;;;;;;;;;4999376;28;20081;-64
2023/06/23 09:36:14;;;;;;;11.65;6.10;;;;;;;;;;4999268;28;20701;-69
2023/06/23 09:38:43;;;;;;;9.98;5.65;;;;;;;;;;4999854;28;20050;-65
2023/06/23 09:41:12;;;;;;;10.75;5.30;;;;;;;;;;5003197;28;20061;-66
2023/06/23 09:43:42;;;;;;;9.60;4.93;;;;;;;;;;4998615;28;20494;-66
2023/06/23 09:46:10;;;;;;;7.68;4.88;;;;;;;;;;4998295;28;20041;-63
2023/06/23 09:48:41;;;;;;;11.55;5.72;;;;;;;;;;5002010;28;20049;-68
2023/06/23 09:51:10;;;;;;;14.68;5.07;;;;;;;;;;4999013;28;20054;-69
2023/06/23 09:53:39;;;;;;;10.88;5.07;;;;;;;;;;5001815;28;20045;-71
2023/06/23 09:56:08;;;;;;;11.20;5.93;;;;;;;;;;5001279;28;20041;-64
2023/06/23 09:58:38;;;;;;;11.02;5.70;;;;;;;;;;4995855;28;20136;-64
2023/06/23 10:01:07;;;;;;;9.55;5.53;;;;;;;;;;5002982;28;20065;-63
2023/06/23 10:03:44;;;;;;;11.38;5.70;;;;;;;;;;4998855;28;20057;-62
2023/06/23 10:06:21;;;;;;;10.23;5.75;;;;;;;;;;5003748;28;21133;-63
2023/06/23 10:08:52;;;;;;;10.85;6.50;;;;;;;;;;5001458;28;20049;-64
2023/06/23 10:11:22;;;;;;;9.35;5.28;;;;;;;;;;4998599;28;20050;-65
2023/06/23 10:13:50;;;;;;;9.20;5.15;;;;;;;;;;5000846;28;20053;-66
2023/06/23 10:16:19;;;;;;;7.35;4.40;;;;;;;;;;4995680;28;20054;-64
2023/06/23 10:18:48;;;;;;;9.38;5.55;;;;;;;;;;5000477;28;20046;-67
2023/06/23 10:21:17;;;;;;;10.73;6.38;;;;;;;;;;5002696;28;20085;-65
2023/06/23 10:23:46;;;;;;;11.75;5.97;;;;;;;;;;4993382;28;20064;-64
2023/06/23 10:26:14;;;;;;;9.50;5.63;;;;;;;;;;4996262;28;20099;-67
2023/06/23 10:28:47;;;;;;;12.23;5.68;;;;;;;;;;4998632;28;20069;-71
2023/06/23 10:31:15;;;;;;;9.40;5.10;;;;;;;;;;5001037;28;20058;-67
2023/06/23 10:33:44;;;;;;;8.80;4.60;;;;;;;;;;4998090;28;20050;-65
2023/06/23 10:36:15;;;;;;;9.73;5.45;;;;;;;;;;5000249;28;20304;-67
2023/06/23 10:38:45;;;;;;;10.65;4.80;;;;;;;;;;5001574;28;20132;-71
2023/06/23 10:41:16;;;;;;;9.90;5.65;;;;;;;;;;5000097;28;20111;-66
2023/06/23 10:43:47;;;;;;;9.32;4.93;;;;;;;;;;5001208;28;20062;-69
2023/06/23 10:46:16;;;;;;;10.27;5.70;;;;;;;;;;4997896;28;20050;-71
2023/06/23 10:48:45;;;;;;;8.80;5.45;;;;;;;;;;5002991;28;20057;-66
2023/06/23 10:51:14;;;;;;;7.45;4.55;;;;;;;;;;4998263;28;20050;-66
2023/06/23 10:53:50;;;;;;;7.88;5.20;;;;;;;;;;4995256;28;20113;-66
2023/06/23 10:56:30;;;;;;;8.57;5.10;;;;;;;;;;4994676;28;20077;-66
2023/06/23 10:58:59;;;;;;;11.18;4.90;;;;;;;;;;4996251;28;20054;-67
2023/06/23 11:01:28;;;;;;;7.72;4.78;;;;;;;;;;4994400;28;20096;-70
2023/06/23 11:04:03;;;;;;;8.38;4.80;;;;;;;;;;4991163;28;20061;-65
2023/06/23 11:06:37;;;;;;;9.10;4.45;;;;;;;;;;4992291;28;20490;-66
2023/06/23 11:09:25;;;;;;;11.13;5.40;;;;;;;;;;4990157;28;20068;-71
2023/06/23 11:11:55;;;;;;;11.32;4.90;;;;;;;;;;4997144;28;20349;-67
2023/06/23 11:14:24;;;;;;;8.35;4.85;;;;;;;;;;4997330;28;20070;-72
2023/06/23 11:16:53;;;;;;;8.50;4.40;;;;;;;;;;4995842;28;20045;-68
2023/06/23 11:19:28;;;;;;;9.57;4.82;;;;;;;;;;4995216;28;20063;-67
2023/06/23 11:22:08;;;;;;;6.85;3.97;;;;;;;;;;5002612;28;20050;-67
2023/06/23 11:24:37;;;;;;;9.98;4.85;;;;;;;;;;5004295;28;20054;-71
2023/06/23 11:27:11;;;;;;;9.48;4.97;;;;;;;;;;5000688;28;20050;-78
2023/06/23 11:29:40;;;;;;;8.85;4.95;;;;;;;;;;5008995;28;20053;-64
2023/06/23 11:32:09;;;;;;;12.45;5.22;;;;;;;;;;5001310;28;20777;-66
2023/06/23 11:34:54;;;;;;;12.57;4.78;;;;;;;;;;5004343;28;20124;-67
2023/06/23 11:37:23;;;;;;;5.70;3.97;;;;;;;;;;5000523;28;20120;-73
2023/06/23 11:39:53;;;;;;;8.68;4.00;;;;;;;;;;5003282;28;20563;-65
2023/06/23 11:42:24;;;;;;;9.23;4.13;;;;;;;;;;5004109;28;20050;-64
2023/06/23 11:44:56;;;;;;;8.45;3.97;;;;;;;;;;5001103;28;20084;-67
2023/06/23 11:47:25;;;;;;;10.32;4.07;;;;;;;;;;4999850;28;20710;-66
2023/06/23 11:49:56;;;;;;;10.02;5.07;;;;;;;;;;5008175;28;20495;-64
2023/06/23 11:52:24;;;;;;;7.53;4.28;;;;;;;;;;5006731;28;20069;-62
2023/06/23 11:54:53;;;;;;;6.20;3.95;;;;;;;;;;5003684;28;20149;-62
2023/06/23 11:57:21;;;;;;;5.18;3.45;;;;;;;;;;5003679;28;20519;-62
2023/06/23 11:59:53;;;;;;;7.25;3.90;;;;;;;;;;5003139;28;20053;-64
2023/06/23 12:02:22;;;;;;;6.50;3.47;;;;;;;;;;4999396;28;20498;-69
2023/06/23 12:04:50;;;;;;;6.25;3.00;;;;;;;;;;5001956;28;20499;-61
2023/06/23 12:07:20;;;;;;;6.13;3.20;;;;;;;;;;5006000;28;20437;-62
2023/06/23 12:09:49;;;;;;;6.45;2.67;;;;;;;;;;5000586;28;20502;-71
2023/06/23 12:12:18;;;;;;;4.68;2.67;;;;;;;;;;5001998;28;20050;-66
2023/06/23 12:14:46;;;;;;;4.72;2.45;;;;;;;;;;5002094;28;20054;-72
2023/06/23 12:17:16;;;;;;;5.80;3.05;;;;;;;;;;5000109;28;20461;-65
2023/06/23 12:19:44;;;;;;;4.53;2.53;;;;;;;;;;4998158;28;20060;-65
2023/06/23 12:22:16;;;;;;;5.53;2.72;;;;;;;;;;5001172;28;20065;-73
2023/06/23 12:24:46;;;;;;;5.60;2.72;;;;;;;;;;4996643;28;20057;-62
2023/06/23 12:27:15;;;;;;;5.22;3.08;;;;;;;;;;4998274;28;20105;-62
2023/06/23 12:29:43;;;;;;;4.97;2.47;;;;;;;;;;4998734;28;20050;-60
2023/06/23 12:32:12;;;;;;;4.40;2.40;;;;;;;;;;4997970;28;20054;-62
2023/06/23 12:34:45;;;;;;;4.82;2.35;;;;;;;;;;4991278;28;20054;-66
2023/06/23 12:37:15;;;;;;;3.33;2.00;;;;;;;;;;4996611;28;20573;-66
2023/06/23 12:39:52;;;;;;;4.38;2.40;;;;;;;;;;5000722;28;20258;-64
2023/06/23 12:42:22;;;;;;;3.42;1.95;;;;;;;;;;4998114;28;20042;-60
2023/06/23 12:44:51;;;;;;;4.13;2.00;;;;;;;;;;4993729;28;20049;-65
2023/06/23 12:47:20;;;;;;;6.18;2.05;;;;;;;;;;5001387;28;20411;-67
2023/06/23 12:49:51;;;;;;;7.30;2.42;;;;;;;;;;5001941;28;20444;-60
2023/06/23 12:52:19;;;;;;;4.45;2.20;;;;;;;;;;4997229;28;20056;-60
2023/06/23 12:54:51;;;;;;;3.50;2.45;;;;;;;;;;4998397;28;20069;-60
2023/06/23 12:57:20;;;;;;;3.45;2.05;;;;;;;;;;5000460;28;20054;-60
2023/06/23 12:59:49;;;;;;;4.88;2.13;;;;;;;;;;4997206;28;20062;-67
2023/06/23 13:02:18;;;;;;;3.35;2.00;;;;;;;;;;4996641;28;20913;-62
2023/06/23 13:04:47;;;;;;;3.75;2.58;;;;;;;;;;4990862;28;20490;-60
2023/06/23 13:07:17;;;;;;;7.30;3.03;;;;;;;;;;4997880;28;20053;-63
2023/06/23 13:09:46;;;;;;;4.22;2.30;;;;;;;;;;5000004;28;20049;-68
2023/06/23 13:12:14;;;;;;;3.35;2.30;;;;;;;;;;4997698;28;20050;-68
2023/06/23 13:14:43;;;;;;;5.10;2.70;;;;;;;;;;4998967;28;20054;-70
2023/06/23 13:17:11;;;;;;;5.90;2.95;;;;;;;;;;5002106;28;20061;-61
2023/06/23 13:19:39;;;;;;;6.35;3.03;;;;;;;;;;4998438;28;20053;-63
2023/06/23 13:22:08;;;;;;;4.03;2.35;;;;;;;;;;4998608;28;20232;-73
2023/06/23 13:24:40;;;;;;;5.50;2.80;;;;;;;;;;5000263;28;20058;-71
2023/06/23 13:27:10;;;;;;;4.28;2.50;;;;;;;;;;5003665;28;20179;-62
2023/06/23 13:29:38;;;;;;;9.13;2.78;;;;;;;;;;4997128;28;20057;-61
2023/06/23 13:32:07;;;;;;;5.90;2.67;;;;;;;;;;5000283;28;20526;-63
2023/06/23 13:34:36;;;;;;;4.72;2.92;;;;;;;;;;5002733;28;20042;-65
2023/06/23 13:37:05;;;;;;;5.45;2.90;;;;;;;;;;4999733;28;20045;-71
2023/06/23 13:39:35;;;;;;;4.25;2.60;;;;;;;;;;4995906;28;20203;-59
2023/06/23 13:42:05;;;;;;;4.97;2.65;;;;;;;;;;4999375;28;20526;-60
2023/06/23 13:44:33;;;;;;;7.32;2.00;;;;;;;;;;4996917;28;20418;-67
2023/06/23 13:47:02;;;;;;;2.88;2.17;;;;;;;;;;4996159;28;20038;-64
2023/06/23 13:49:30;;;;;;;3.88;2.40;;;;;;;;;;4991994;28;20583;-71
2023/06/23 13:51:59;;;;;;;4.03;2.13;;;;;;;;;;4999937;28;20053;-71
2023/06/23 13:54:27;;;;;;;3.70;2.38;;;;;;;;;;4996923;28;20160;-60
2023/06/23 13:56:56;;;;;;;6.50;2.33;;;;;;;;;;4999538;28;20042;-61
2023/06/23 13:59:25;;;;;;;5.68;2.65;;;;;;;;;;4998315;28;20540;-65
2023/06/23 14:01:54;;;;;;;4.95;2.70;;;;;;;;;;4999875;28;20049;-65
2023/06/23 14:04:22;;;;;;;5.65;2.88;;;;;;;;;;4999313;28;20057;-58
2023/06/23 14:06:51;;;;;;;4.43;2.58;;;;;;;;;;4997455;28;20050;-63
2023/06/23 14:09:20;;;;;;;5.50;2.35;;;;;;;;;;5000555;28;20498;-69
2023/06/23 14:11:48;;;;;;;5.07;2.38;;;;;;;;;;4998847;28;20065;-59
2023/06/23 14:14:17;;;;;;;4.43;2.33;;;;;;;;;;4999376;28;20498;-63
2023/06/23 14:16:46;;;;;;;7.63;2.80;;;;;;;;;;4981514;28;20655;-60
2023/06/23 14:19:15;;;;;;;6.05;2.67;;;;;;;;;;4975120;28;20459;-60
2023/06/23 14:21:44;;;;;;;5.28;2.75;;;;;;;;;;4975172;28;20043;-61
2023/06/23 14:24:12;;;;;;;3.13;2.40;;;;;;;;;;4979857;28;20141;-63
2023/06/23 14:26:40;;;;;;;5.22;3.03;;;;;;;;;;4991474;28;20053;-63
2023/06/23 14:29:09;;;;;;;5.15;3.10;;;;;;;;;;5000270;28;20154;-59
2023/06/23 14:31:38;;;;;;;6.55;2.92;;;;;;;;;;5005743;28;20100;-61
2023/06/23 14:34:08;;;;;;;4.82;2.88;;;;;;;;;;4996327;28;20046;-65
2023/06/23 14:36:37;;;;;;;4.63;2.90;;;;;;;;;;4990674;28;20045;-70
2023/06/23 14:39:05;;;;;;;6.13;2.85;;;;;;;;;;4987879;28;20148;-62
2023/06/23 14:41:34;;;;;;;4.20;2.80;;;;;;;;;;4998586;28;20054;-64
2023/06/23 14:44:03;;;;;;;6.05;3.15;;;;;;;;;;4993115;28;20053;-60
2023/06/23 14:46:31;;;;;;;6.28;2.78;;;;;;;;;;4998700;28;20049;-67
2023/06/23 14:49:00;;;;;;;4.25;2.92;;;;;;;;;;4996871;28;20045;-70
2023/06/23 14:51:31;;;;;;;5.78;3.30;;;;;;;;;;4997669;28;20054;-62
2023/06/23 14:54:00;;;;;;;5.40;3.28;;;;;;;;;;4997054;28;20655;-61
2023/06/23 14:56:28;;;;;;;4.80;3.05;;;;;;;;;;5005134;28;20468;-62
2023/06/23 14:58:58;;;;;;;5.80;3.55;;;;;;;;;;5000875;28;20053;-68